Terminal Aerodrome Forecast
Issued by NWS Detroit/Pontiac, MI

Home | Current Version | Previous Version | Text Only | Print | Product List | Glossary On
Versions: 1 2 3 4 5 6 7 8 9 10 11 12 13 14
000
FTUS43 KDTX 280500
TAFFNT
TAF
KFNT 280525Z 2806/2906 32010KT 6SM -SHRA SCT025 BKN040 OVC080
      TEMPO 2806/2808 4SM -SHRA OVC015
     FM280800 34007KT P6SM SCT015 OVC025
     FM281400 34013G20KT P6SM BKN025 OVC040
     FM281800 34013G20KT P6SM BKN040
     FM282300 30008KT P6SM SCT045
     FM290300 27004KT P6SM FEW045 BKN090=

USA.gov is the U.S. government's official web portal to all federal, state and local government web resources and services.